Time;durP1;ratioP1;P1;durP2;ratioP2;P2;SDS_P1;SDS_P2;PMS_P1;PMS_P2;Temp;Humidity;BMP_temperature;BMP_pressure;BME280_temperature;BME280_humidity;BME280_pressure;Samples;Min_cycle;Max_cycle;Signal;HPM_P1;HPM_P2
2021/03/12 00:00:20;;;;;;;5.30;1.00;;;6.90;99.90;;;;;;4940655;29;20027;-91
2021/03/12 00:02:47;;;;;;;6.18;1.17;;;7.10;99.90;;;;;;4940932;29;20446;-91
2021/03/12 00:05:13;;;;;;;6.07;1.17;;;7.00;99.90;;;;;;4940810;29;20126;-89
2021/03/12 00:07:39;;;;;;;3.67;1.08;;;6.90;99.90;;;;;;4941032;29;20494;-92
2021/03/12 00:10:17;;;;;;;7.68;1.10;;;7.10;99.90;;;;;;4939770;29;20030;-90
2021/03/12 00:12:44;;;;;;;2.13;0.95;;;7.10;99.90;;;;;;4941518;29;20023;-91
2021/03/12 00:15:13;;;;;;;3.17;0.90;;;7.10;99.90;;;;;;4940726;29;20040;-90
2021/03/12 00:17:39;;;;;;;4.65;1.10;;;7.20;99.90;;;;;;4940334;29;20071;-90
2021/03/12 00:20:11;;;;;;;3.95;0.88;;;7.10;99.90;;;;;;4940489;29;20476;-90
2021/03/12 00:22:38;;;;;;;5.65;1.60;;;7.10;99.90;;;;;;4941062;29;20042;-90
2021/03/12 00:25:07;;;;;;;6.55;0.98;;;7.20;99.90;;;;;;4957529;29;20439;-91
2021/03/12 00:27:33;;;;;;;6.90;1.33;;;7.00;99.90;;;;;;4940117;29;20024;-91
2021/03/12 00:29:59;;;;;;;7.90;1.10;;;7.00;99.90;;;;;;4957842;29;20035;-90
2021/03/12 00:32:25;;;;;;;3.70;1.00;;;7.20;99.90;;;;;;4940458;29;20023;-90
2021/03/12 00:34:50;;;;;;;7.43;1.10;;;7.10;99.90;;;;;;4957465;29;20455;-90
2021/03/12 00:37:16;;;;;;;5.25;1.10;;;7.20;99.90;;;;;;4940216;29;20023;-90
2021/03/12 00:39:42;;;;;;;4.40;1.10;;;7.20;99.90;;;;;;4940180;29;20098;-89
2021/03/12 00:42:09;;;;;;;3.17;0.85;;;7.10;99.90;;;;;;4940403;29;20494;-89
2021/03/12 00:44:34;;;;;;;3.33;1.10;;;7.20;99.90;;;;;;4940031;29;20035;-90
2021/03/12 00:47:01;;;;;;;6.20;0.85;;;7.40;99.90;;;;;;4940498;29;20054;-91
2021/03/12 00:49:27;;;;;;;6.63;1.17;;;7.40;99.90;;;;;;4940425;29;20046;-91
2021/03/12 00:51:52;;;;;;;5.10;1.23;;;7.40;99.90;;;;;;4939905;29;20114;-91
2021/03/12 00:54:18;;;;;;;5.63;1.10;;;7.50;99.90;;;;;;4940033;29;20566;-92
2021/03/12 00:56:44;;;;;;;3.60;0.80;;;7.60;99.90;;;;;;4940155;29;20027;-90
2021/03/12 00:59:11;;;;;;;6.00;1.00;;;7.60;99.90;;;;;;4940148;29;20028;-91
2021/03/12 01:01:36;;;;;;;7.50;1.10;;;7.40;99.90;;;;;;4940160;29;20027;-91
2021/03/12 01:04:02;;;;;;;4.70;1.00;;;7.30;99.90;;;;;;4957624;29;20135;-92
2021/03/12 01:06:28;;;;;;;2.83;0.88;;;7.30;99.90;;;;;;4940172;29;20078;-90
2021/03/12 01:08:54;;;;;;;6.15;1.00;;;7.30;99.90;;;;;;4939805;29;20027;-91
2021/03/12 01:11:19;;;;;;;4.03;1.10;;;7.40;99.90;;;;;;4939948;29;20114;-92
2021/03/12 01:13:45;;;;;;;4.68;0.90;;;7.40;99.90;;;;;;4939953;29;20039;-91
2021/03/12 01:16:11;;;;;;;2.10;0.77;;;7.40;99.90;;;;;;4940151;29;20025;-91
2021/03/12 01:18:37;;;;;;;4.72;1.02;;;7.30;99.90;;;;;;4940042;29;20031;-90
2021/03/12 01:21:03;;;;;;;4.13;1.05;;;7.30;99.90;;;;;;4940722;29;20074;-92
2021/03/12 01:23:29;;;;;;;5.68;1.10;;;7.30;99.90;;;;;;4940711;29;20055;-92
2021/03/12 01:25:55;;;;;;;5.63;1.25;;;7.20;99.90;;;;;;4941289;29;20447;-92
2021/03/12 01:28:20;;;;;;;5.32;1.33;;;7.10;99.90;;;;;;4940803;29;20035;-92
2021/03/12 01:30:49;;;;;;;7.30;1.13;;;7.30;99.90;;;;;;4939700;29;20194;-90
2021/03/12 01:33:15;;;;;;;5.35;1.10;;;7.30;99.90;;;;;;4939717;29;20093;-91
2021/03/12 01:35:41;;;;;;;6.07;0.93;;;7.40;99.90;;;;;;4939699;29;20024;-91
2021/03/12 01:38:08;;;;;;;5.43;1.23;;;7.30;99.90;;;;;;4939607;29;20027;-89
2021/03/12 01:40:38;;;;;;;1.88;0.82;;;7.30;99.90;;;;;;4939734;29;20029;-91
2021/03/12 01:43:04;;;;;;;5.32;1.20;;;7.40;99.90;;;;;;4939673;29;20098;-91
2021/03/12 01:45:36;;;;;;;3.33;0.90;;;7.50;99.90;;;;;;4939945;29;20024;-90
2021/03/12 01:48:04;;;;;;;5.85;1.10;;;7.50;99.90;;;;;;4939586;29;20031;-90
2021/03/12 01:50:30;;;;;;;4.50;1.08;;;7.50;99.90;;;;;;4939335;29;20027;-89
2021/03/12 01:52:56;;;;;;;5.70;1.00;;;7.60;99.90;;;;;;4939458;29;20122;-91
2021/03/12 01:55:33;;;;;;;2.78;0.80;;;7.60;99.90;;;;;;4939447;29;20019;-90
2021/03/12 01:58:00;;;;;;;5.07;1.13;;;7.70;99.90;;;;;;4939609;29;20114;-90
2021/03/12 02:00:29;;;;;;;3.63;0.82;;;7.60;99.90;;;;;;4939396;29;20526;-90
2021/03/12 02:02:56;;;;;;;5.32;0.70;;;7.50;99.90;;;;;;4939450;29;20085;-91
2021/03/12 02:05:22;;;;;;;6.28;1.33;;;7.60;99.90;;;;;;4938968;29;20043;-90
2021/03/12 02:07:47;;;;;;;3.10;1.00;;;7.50;99.90;;;;;;4939325;29;20031;-90
2021/03/12 02:10:16;;;;;;;3.55;1.00;;;7.50;99.90;;;;;;4939035;29;20020;-90
2021/03/12 02:13:13;;;;;;;5.43;0.90;;;7.40;99.90;;;;;;4939417;29;20026;-90
2021/03/12 02:15:44;;;;;;;3.85;0.95;;;7.40;99.90;;;;;;4939510;29;20082;-90
2021/03/12 02:18:20;;;;;;;3.03;1.05;;;7.30;99.90;;;;;;4939077;29;20023;-90
2021/03/12 02:20:52;;;;;;;1.85;0.73;;;7.40;99.90;;;;;;4939280;29;20028;-89
2021/03/12 02:23:51;;;;;;;2.67;0.88;;;7.50;99.90;;;;;;4939023;29;20499;-91
2021/03/12 02:26:28;;;;;;;3.22;0.75;;;7.50;99.90;;;;;;4926491;29;20045;-90
2021/03/12 02:28:54;;;;;;;4.80;0.90;;;7.40;99.90;;;;;;4939531;29;20035;-91
2021/03/12 02:31:22;;;;;;;5.18;1.00;;;7.30;99.90;;;;;;4956167;28;20019;-90
2021/03/12 02:33:50;;;;;;;4.43;0.80;;;7.20;99.90;;;;;;4941625;29;20400;-91
2021/03/12 02:36:19;;;;;;;4.35;1.05;;;7.20;99.90;;;;;;4943800;29;20498;-90
2021/03/12 02:38:47;;;;;;;4.30;0.85;;;7.30;99.90;;;;;;4943301;29;20023;-90
2021/03/12 02:41:13;;;;;;;2.95;0.70;;;7.20;99.90;;;;;;4943342;29;20019;-90
2021/03/12 02:43:39;;;;;;;2.50;0.63;;;7.20;99.90;;;;;;4943346;29;20031;-90
2021/03/12 02:46:06;;;;;;;2.97;0.93;;;7.10;99.90;;;;;;4959685;29;20101;-90
2021/03/12 02:48:33;;;;;;;3.17;0.98;;;7.00;99.90;;;;;;4943004;29;20116;-93
2021/03/12 02:50:59;;;;;;;5.90;0.90;;;7.10;99.90;;;;;;4942945;29;20110;-90
2021/03/12 02:53:25;;;;;;;4.22;1.20;;;7.00;99.90;;;;;;4942977;29;20082;-91
2021/03/12 02:55:54;;;;;;;8.48;1.20;;;7.00;99.90;;;;;;4942765;29;20019;-90
2021/03/12 02:58:20;;;;;;;3.22;0.98;;;6.90;99.90;;;;;;4943162;29;20412;-92
2021/03/12 03:00:46;;;;;;;6.15;1.20;;;7.00;99.90;;;;;;4942711;29;20469;-89
2021/03/12 03:03:14;;;;;;;3.50;1.00;;;6.90;99.90;;;;;;4943299;29;20031;-90
2021/03/12 03:05:43;;;;;;;7.70;1.83;;;6.80;99.90;;;;;;4959822;29;20051;-90
2021/03/12 03:08:12;;;;;;;5.70;1.92;;;6.80;99.90;;;;;;4943269;29;20031;-94
2021/03/12 03:10:39;;;;;;;4.80;1.40;;;6.60;99.90;;;;;;4943211;29;20078;-91
2021/03/12 03:13:06;;;;;;;4.50;1.13;;;6.50;99.90;;;;;;4960682;29;20031;-91
2021/03/12 03:15:34;;;;;;;3.45;0.93;;;6.50;99.90;;;;;;4959754;29;20046;-91
2021/03/12 03:18:02;;;;;;;2.60;0.93;;;6.50;99.90;;;;;;4943242;29;20027;-89
2021/03/12 03:20:29;;;;;;;5.18;1.40;;;6.30;99.90;;;;;;4943234;29;20035;-93
2021/03/12 03:22:55;;;;;;;13.45;1.08;;;6.40;99.90;;;;;;4942941;29;20054;-91
2021/03/12 03:25:21;;;;;;;3.67;1.00;;;6.30;99.90;;;;;;4942922;29;20034;-92
2021/03/12 03:27:47;;;;;;;3.58;1.02;;;6.30;99.90;;;;;;4942758;29;20023;-91
2021/03/12 03:30:14;;;;;;;5.22;0.90;;;6.30;99.90;;;;;;4942990;29;20026;-91
2021/03/12 03:32:40;;;;;;;5.47;1.20;;;6.40;99.90;;;;;;4943704;29;20028;-92
2021/03/12 03:35:11;;;;;;;4.22;1.25;;;6.30;99.90;;;;;;4942554;29;20029;-92
2021/03/12 03:37:37;;;;;;;5.47;1.10;;;6.40;99.90;;;;;;4942590;29;20146;-90
2021/03/12 03:40:06;;;;;;;4.53;1.05;;;6.40;99.90;;;;;;4941805;29;20027;-91
2021/03/12 03:42:33;;;;;;;5.55;1.20;;;6.30;99.90;;;;;;4941699;29;20024;-92
2021/03/12 03:45:00;;;;;;;5.18;1.02;;;6.40;99.90;;;;;;4942198;29;20031;-92
2021/03/12 03:47:28;;;;;;;5.57;1.10;;;6.50;99.90;;;;;;4958733;29;20542;-91
2021/03/12 03:49:54;;;;;;;2.05;0.80;;;6.50;99.90;;;;;;4942642;29;20031;-91
2021/03/12 03:52:22;;;;;;;3.55;0.93;;;6.50;99.90;;;;;;4941721;29;20546;-91
2021/03/12 03:54:51;;;;;;;9.40;1.30;;;6.50;99.90;;;;;;4942154;29;20035;-91
2021/03/12 03:57:20;;;;;;;3.60;0.90;;;6.50;99.90;;;;;;4942131;29;20071;-93
2021/03/12 03:59:47;;;;;;;3.33;1.00;;;6.30;99.90;;;;;;4942646;29;20032;-91
2021/03/12 04:02:17;;;;;;;4.80;1.20;;;6.20;99.90;;;;;;4942927;29;20020;-92
2021/03/12 04:04:45;;;;;;;7.82;1.58;;;6.20;99.90;;;;;;4942299;29;20050;-93
2021/03/12 04:07:13;;;;;;;7.80;1.27;;;6.30;99.90;;;;;;4960810;29;20034;-92
2021/03/12 04:09:41;;;;;;;6.60;1.10;;;6.30;99.90;;;;;;4944037;29;20023;-91
2021/03/12 04:12:08;;;;;;;5.80;1.20;;;6.30;99.90;;;;;;4942377;29;20391;-90
2021/03/12 04:14:35;;;;;;;9.65;1.25;;;6.40;99.90;;;;;;4942705;29;20460;-90
2021/03/12 04:17:02;;;;;;;10.30;1.60;;;6.30;99.90;;;;;;4942984;29;20030;-91
2021/03/12 04:19:28;;;;;;;16.77;4.07;;;6.20;99.90;;;;;;4942129;29;20031;-93
2021/03/12 04:21:55;;;;;;;9.93;1.63;;;6.00;99.90;;;;;;4942571;29;20027;-93
2021/03/12 04:24:21;;;;;;;3.92;0.82;;;6.00;99.90;;;;;;4942179;29;20027;-92
2021/03/12 04:26:47;;;;;;;5.53;1.20;;;6.10;99.90;;;;;;4942756;29;20035;-93
2021/03/12 04:29:15;;;;;;;6.70;1.33;;;6.10;99.90;;;;;;4942106;29;20027;-92
2021/03/12 04:31:41;;;;;;;13.18;1.65;;;6.20;99.90;;;;;;4942737;29;20075;-91
2021/03/12 04:34:06;;;;;;;5.88;1.23;;;6.20;99.90;;;;;;4942690;29;20039;-91
2021/03/12 04:36:33;;;;;;;6.70;1.42;;;6.10;99.90;;;;;;4942068;29;20539;-91
2021/03/12 04:39:00;;;;;;;7.28;1.40;;;6.10;99.90;;;;;;4941898;29;20030;-93
2021/03/12 04:41:26;;;;;;;6.10;1.33;;;6.10;99.90;;;;;;4942203;29;20091;-92
2021/03/12 04:43:52;;;;;;;4.57;1.10;;;6.10;99.90;;;;;;4942409;29;20039;-91
2021/03/12 04:46:19;;;;;;;10.27;1.33;;;6.20;99.90;;;;;;4942167;29;20027;-92
2021/03/12 04:48:45;;;;;;;8.38;1.90;;;6.00;99.90;;;;;;4941533;29;20071;-91
2021/03/12 04:51:12;;;;;;;9.25;2.05;;;6.10;99.90;;;;;;4941628;29;20027;-91
2021/03/12 04:53:42;;;;;;;9.75;1.58;;;6.00;99.90;;;;;;4941674;29;20396;-92
2021/03/12 04:56:09;;;;;;;12.25;1.52;;;6.00;99.90;;;;;;4941900;29;20105;-92
2021/03/12 04:58:37;;;;;;;6.25;1.27;;;6.00;99.90;;;;;;4941751;29;20023;-91
2021/03/12 05:01:08;;;;;;;6.85;1.40;;;6.00;99.90;;;;;;4941292;29;20038;-92
2021/03/12 05:03:34;;;;;;;10.65;1.80;;;6.20;99.90;;;;;;4942759;29;20110;-91
2021/03/12 05:06:01;;;;;;;6.75;1.40;;;6.20;99.90;;;;;;4943413;29;20043;-92
2021/03/12 05:08:27;;;;;;;6.93;1.10;;;6.20;99.90;;;;;;4942795;29;20031;-92
2021/03/12 05:11:12;;;;;;;5.25;1.30;;;6.10;99.90;;;;;;4940684;29;20027;-92
2021/03/12 05:13:37;;;;;;;8.00;1.65;;;6.20;99.90;;;;;;4941419;29;20031;-92
2021/03/12 05:16:04;;;;;;;7.53;1.15;;;6.00;99.90;;;;;;4941977;29;20538;-92
2021/03/12 05:18:29;;;;;;;9.65;1.27;;;6.10;99.90;;;;;;4941368;29;20387;-93
2021/03/12 05:20:55;;;;;;;4.80;1.45;;;6.10;99.90;;;;;;4941395;29;20023;-93
2021/03/12 05:23:22;;;;;;;7.03;1.45;;;6.10;99.90;;;;;;4941616;29;20027;-94
2021/03/12 05:25:48;;;;;;;6.68;1.30;;;6.00;99.90;;;;;;4941096;29;20023;-91
2021/03/12 05:28:14;;;;;;;7.38;1.40;;;5.90;99.90;;;;;;4942229;29;20419;-92
2021/03/12 05:30:40;;;;;;;6.47;1.30;;;5.90;99.90;;;;;;4940606;29;20023;-91
2021/03/12 05:33:06;;;;;;;7.78;1.58;;;5.90;99.90;;;;;;4941447;29;20027;-93
2021/03/12 05:35:32;;;;;;;9.18;1.17;;;6.00;99.90;;;;;;4941555;29;20062;-92
2021/03/12 05:37:58;;;;;;;11.55;1.38;;;6.00;99.90;;;;;;4941353;29;20024;-91
2021/03/12 05:40:27;;;;;;;5.40;0.88;;;5.80;99.90;;;;;;4941550;29;20031;-91
2021/03/12 05:42:54;;;;;;;3.28;0.95;;;5.70;99.90;;;;;;4941094;29;20027;-92
2021/03/12 05:45:21;;;;;;;5.20;1.20;;;5.70;99.90;;;;;;4941778;29;20027;-91
2021/03/12 05:47:48;;;;;;;6.85;1.48;;;5.60;99.90;;;;;;4941503;29;20027;-92
2021/03/12 05:50:15;;;;;;;8.25;1.35;;;5.70;99.90;;;;;;4941330;29;20386;-91
2021/03/12 05:52:44;;;;;;;4.50;0.90;;;5.60;99.90;;;;;;4941654;29;20031;-92
2021/03/12 05:55:10;;;;;;;7.45;1.30;;;5.60;99.90;;;;;;4941480;29;20114;-91
2021/03/12 05:57:36;;;;;;;8.10;1.20;;;5.60;99.90;;;;;;4941927;29;20620;-92
2021/03/12 06:00:05;;;;;;;4.75;1.00;;;5.50;99.90;;;;;;4942420;29;20067;-91
2021/03/12 06:02:30;;;;;;;5.05;1.23;;;5.70;99.90;;;;;;4940979;29;20027;-92
2021/03/12 06:04:56;;;;;;;4.47;1.20;;;5.80;99.90;;;;;;4940588;29;20055;-91
2021/03/12 06:07:22;;;;;;;5.38;0.95;;;5.80;99.90;;;;;;4940808;28;20122;-93
2021/03/12 06:09:48;;;;;;;6.25;1.02;;;6.00;99.90;;;;;;4943681;29;20031;-92
2021/03/12 06:12:14;;;;;;;4.45;1.50;;;6.20;99.90;;;;;;4944387;29;20023;-92
2021/03/12 06:14:55;;;;;;;6.38;1.27;;;6.30;99.90;;;;;;4945425;29;20123;-92
2021/03/12 06:17:33;;;;;;;10.40;1.50;;;6.30;99.90;;;;;;4945104;29;20042;-92
2021/03/12 06:20:01;;;;;;;8.52;1.40;;;6.00;99.90;;;;;;4945187;29;20027;-92
2021/03/12 06:22:27;;;;;;;6.32;1.00;;;6.10;99.90;;;;;;4945507;29;20033;-92
2021/03/12 06:24:53;;;;;;;3.65;1.25;;;6.20;99.90;;;;;;4946162;29;20091;-92
2021/03/12 06:27:37;;;;;;;4.93;1.33;;;6.30;99.90;;;;;;4944766;29;20365;-92
2021/03/12 06:30:07;;;;;;;5.38;1.42;;;6.40;99.90;;;;;;4945237;29;20027;-92
2021/03/12 06:32:53;;;;;;;8.75;1.67;;;6.40;99.90;;;;;;4944685;29;20031;-94
2021/03/12 06:35:24;;;;;;;8.05;1.60;;;6.20;99.90;;;;;;4944790;29;20027;-92
2021/03/12 06:38:14;;;;;;;9.00;1.77;;;6.10;99.90;;;;;;4945308;29;20027;-92
2021/03/12 06:40:42;;;;;;;5.40;1.38;;;6.10;99.90;;;;;;4944224;29;20024;-94
2021/03/12 06:43:16;;;;;;;9.32;1.30;;;5.80;99.90;;;;;;4943905;29;20463;-92
2021/03/12 06:45:42;;;;;;;;;;;5.60;99.90;;;;;;4945162;29;20031;-91
2021/03/12 06:48:23;;;;;;;8.23;1.35;;;5.50;99.90;;;;;;4943793;29;19913;-91
2021/03/12 06:51:11;;;;;;;6.85;1.38;;;5.40;99.90;;;;;;4943492;29;20066;-92
2021/03/12 06:53:49;;;;;;;10.27;1.42;;;5.40;99.90;;;;;;4944363;29;20035;-92
2021/03/12 06:56:27;;;;;;;6.53;1.15;;;5.50;99.90;;;;;;4944387;29;20037;-91
2021/03/12 06:59:02;;;;;;;4.65;0.90;;;5.60;99.90;;;;;;4944102;29;20027;-92
2021/03/12 07:01:28;;;;;;;4.00;1.00;;;5.70;99.90;;;;;;4944500;29;20027;-91
2021/03/12 07:04:12;;;;;;;5.85;1.40;;;5.80;99.90;;;;;;4943703;29;20051;-90
2021/03/12 07:06:51;;;;;;;3.97;0.93;;;5.90;99.90;;;;;;4943032;29;20510;-91
2021/03/12 07:09:17;;;;;;;6.38;1.15;;;6.00;99.90;;;;;;4943437;29;20031;-91
2021/03/12 07:11:52;;;;;;;4.53;1.20;;;6.20;99.90;;;;;;4944206;29;20467;-91
2021/03/12 07:14:18;;;;;;;4.38;1.08;;;6.10;99.90;;;;;;4943673;29;20024;-93
2021/03/12 07:16:47;;;;;;;2.92;1.00;;;6.20;99.90;;;;;;4943276;29;20094;-91
2021/03/12 07:19:16;;;;;;;5.50;1.30;;;6.30;99.90;;;;;;4943808;29;20020;-91
2021/03/12 07:21:49;;;;;;;3.78;1.20;;;6.30;99.90;;;;;;4944940;29;20031;-91
2021/03/12 07:24:21;;;;;;;5.45;1.02;;;6.50;99.90;;;;;;4943732;29;20106;-91
2021/03/12 07:26:57;;;;;;;5.35;1.10;;;6.60;99.90;;;;;;4942848;29;20035;-91
2021/03/12 07:29:31;;;;;;;5.60;1.00;;;6.70;99.90;;;;;;4943123;29;20086;-90
2021/03/12 07:31:59;;;;;;;6.97;1.10;;;6.70;99.90;;;;;;4943446;29;20031;-90
2021/03/12 07:34:29;;;;;;;3.75;0.82;;;6.70;99.90;;;;;;4943854;29;20067;-90
2021/03/12 07:36:57;;;;;;;4.25;0.80;;;6.80;99.90;;;;;;4944114;29;20019;-92
2021/03/12 07:39:25;;;;;;;6.30;1.10;;;6.90;99.90;;;;;;4942790;29;20063;-91
2021/03/12 07:42:02;;;;;;;4.43;1.10;;;6.90;99.90;;;;;;4942258;29;20023;-92
2021/03/12 08:19:46;;;;;;;7.10;1.20;;;7.60;99.90;;;;;;4906596;29;20068;-91
2021/03/12 10:01:09;;;;;;;3.97;0.90;;;6.80;99.90;;;;;;742678;23;20327;-89
2021/03/12 10:03:35;;;;;;;5.93;1.08;;;6.90;99.90;;;;;;4902024;29;20437;-90
2021/03/12 10:06:09;;;;;;;4.85;1.20;;;7.10;99.90;;;;;;4922565;29;20111;-91
2021/03/12 10:09:05;;;;;;;4.50;1.10;;;7.60;99.90;;;;;;4922362;29;20028;-90
2021/03/12 10:11:42;;;;;;;5.18;1.35;;;7.50;99.90;;;;;;4922484;29;20032;-89
2021/03/12 10:14:27;;;;;;;5.22;0.98;;;7.60;99.90;;;;;;4920677;29;20083;-90
2021/03/12 10:17:18;;;;;;;2.97;1.13;;;8.50;99.90;;;;;;4920877;29;20063;-90
2021/03/12 10:19:51;;;;;;;4.65;0.90;;;8.80;99.90;;;;;;4920941;29;20048;-90
2021/03/12 10:22:41;;;;;;;2.83;0.73;;;7.90;99.90;;;;;;4920757;29;20476;-89
2021/03/12 10:25:14;;;;;;;4.07;0.80;;;7.90;99.90;;;;;;4904451;29;20476;-84
2021/03/12 10:27:59;;;;;;;5.90;1.27;;;7.60;99.90;;;;;;4921053;29;20028;-89
2021/03/12 10:30:45;;;;;;;4.50;1.05;;;7.50;99.90;;;;;;4921854;29;20152;-92
2021/03/12 10:33:17;;;;;;;6.70;0.70;;;8.30;99.90;;;;;;4921716;29;20035;-92
2021/03/12 10:35:45;;;;;;;4.20;0.85;;;8.60;99.90;;;;;;4906535;29;20016;-92
2021/03/12 10:38:26;;;;;;;2.53;0.75;;;8.90;99.90;;;;;;4921739;29;20024;-91
2021/03/12 10:41:01;;;;;;;5.20;0.93;;;8.90;99.90;;;;;;4919626;29;20027;-89
2021/03/12 10:43:32;;;;;;;3.00;0.60;;;8.80;99.90;;;;;;4921861;29;20055;-91
2021/03/12 10:46:00;;;;;;;1.95;0.73;;;9.10;99.90;;;;;;4922182;29;20024;-91
2021/03/12 10:48:28;;;;;;;5.40;0.80;;;9.70;99.90;;;;;;4920982;29;20036;-87
2021/03/12 10:51:03;;;;;;;2.55;0.75;;;10.40;99.90;;;;;;4920023;29;20032;-88
2021/03/12 10:53:29;;;;;;;6.60;0.88;;;10.80;99.90;;;;;;4920426;29;20032;-92
2021/03/12 10:56:04;;;;;;;4.30;1.00;;;10.40;99.90;;;;;;4919571;29;20032;-89
2021/03/12 10:58:35;;;;;;;2.25;0.80;;;10.40;99.90;;;;;;4919294;29;20436;-89
2021/03/12 11:01:25;;;;;;;3.90;0.98;;;10.60;99.90;;;;;;4920437;29;20366;-89
2021/03/12 11:03:52;;;;;;;5.07;0.93;;;10.60;99.90;;;;;;4920126;29;20080;-89
2021/03/12 11:06:19;;;;;;;4.53;0.90;;;10.90;99.90;;;;;;4919767;29;20047;-88
2021/03/12 11:08:46;;;;;;;6.50;1.15;;;11.10;99.90;;;;;;4919433;29;20088;-88
2021/03/12 11:11:14;;;;;;;3.35;0.90;;;11.30;99.90;;;;;;4919621;29;20024;-89
2021/03/12 11:13:41;;;;;;;4.20;1.02;;;11.50;99.90;;;;;;4919042;29;20028;-90
2021/03/12 11:16:08;;;;;;;3.60;1.10;;;12.00;99.90;;;;;;4918974;29;20096;-89
2021/03/12 11:18:35;;;;;;;5.53;1.35;;;12.80;99.90;;;;;;4919244;29;20040;-89
2021/03/12 11:21:04;;;;;;;4.80;1.20;;;12.10;99.90;;;;;;4919315;29;20029;-89
2021/03/12 11:23:30;;;;;;;4.90;1.23;;;12.30;99.90;;;;;;4918934;29;20425;-89
2021/03/12 11:25:56;;;;;;;4.03;1.05;;;11.90;99.90;;;;;;4918930;29;20059;-89
2021/03/12 11:28:24;;;;;;;2.65;0.93;;;12.80;99.90;;;;;;4919162;29;20115;-89
2021/03/12 11:30:52;;;;;;;2.35;0.68;;;13.20;99.90;;;;;;4919075;29;20035;-90
2021/03/12 11:53:15;;;;;;;5.82;1.08;;;12.40;99.70;;;;;;4920848;29;20080;-90
2021/03/12 12:16:06;;;;;;;5.85;0.93;;;12.90;96.30;;;;;;4886763;29;20407;-90
2021/03/12 12:18:31;;;;;;;3.25;1.08;;;13.60;96.40;;;;;;4919172;29;20028;-91
2021/03/12 12:21:16;;;;;;;5.32;1.42;;;13.70;93.90;;;;;;4923170;29;20032;-90
2021/03/12 12:23:51;;;;;;;4.10;1.05;;;13.70;95.20;;;;;;4924786;29;20071;-90
2021/03/12 12:26:17;;;;;;;4.53;0.90;;;13.30;95.80;;;;;;4920886;29;20032;-90
2021/03/12 12:28:42;;;;;;;4.90;1.23;;;13.80;96.70;;;;;;4919310;29;20388;-92
2021/03/12 12:31:08;;;;;;;3.30;1.17;;;14.00;93.20;;;;;;4919049;29;20020;-93
2021/03/12 12:33:34;;;;;;;5.22;1.02;;;13.00;93.00;;;;;;4918253;29;20031;-90
2021/03/12 12:36:00;;;;;;;3.95;0.90;;;12.30;95.70;;;;;;4918463;29;20020;-91
2021/03/12 12:38:39;;;;;;;5.63;1.52;;;11.80;97.00;;;;;;4919726;29;20039;-90
2021/03/12 12:54:48;;;;;;;4.45;1.30;;;9.90;99.90;;;;;;4862091;29;20122;-91
2021/03/12 13:53:12;;;;;;;5.95;1.20;;;11.80;88.70;;;;;;4916926;29;20413;-90
2021/03/12 13:55:38;;;;;;;7.03;1.77;;;12.70;87.90;;;;;;4901698;29;20036;-89
2021/03/12 13:58:10;;;;;;;4.47;1.58;;;13.20;86.60;;;;;;4918688;29;20160;-89
2021/03/12 14:00:38;;;;;;;4.55;1.33;;;;;;;;;;4900945;29;20040;-91
2021/03/12 14:03:03;;;;;;;6.03;1.73;;;15.80;98.30;;;;;;4900953;29;20388;-90
2021/03/12 14:05:29;;;;;;;5.80;1.73;;;15.30;96.20;;;;;;4900955;29;20067;-89
2021/03/12 14:07:55;;;;;;;3.22;1.10;;;15.60;96.00;;;;;;4901179;29;20030;-90
2021/03/12 14:10:21;;;;;;;5.15;1.15;;;15.60;98.70;;;;;;4901141;29;20042;-89
2021/03/12 14:12:47;;;;;;;7.50;1.67;;;15.30;73.80;;;;;;4917866;29;20036;-90
2021/03/12 14:15:13;;;;;;;4.53;1.20;;;13.80;79.50;;;;;;4901478;29;20032;-89
2021/03/12 14:17:39;;;;;;;5.00;1.30;;;12.90;90.60;;;;;;4901041;29;20453;-91
2021/03/12 14:20:06;;;;;;;5.93;1.30;;;12.10;83.00;;;;;;4901315;29;20028;-91
2021/03/12 14:22:32;;;;;;;7.95;1.65;;;11.20;86.20;;;;;;4901015;29;20076;-90
2021/03/12 14:24:58;;;;;;;8.43;1.38;;;10.90;90.80;;;;;;4900835;29;20495;-91
2021/03/12 14:27:23;;;;;;;7.10;1.67;;;10.70;91.10;;;;;;4901028;29;20091;-90
2021/03/12 14:29:49;;;;;;;4.25;1.15;;;10.80;92.50;;;;;;4919226;29;20036;-90
2021/03/12 14:32:15;;;;;;;6.95;1.40;;;10.70;93.50;;;;;;4904447;29;20032;-90
2021/03/12 14:34:42;;;;;;;8.50;1.63;;;10.50;95.20;;;;;;4903673;29;20087;-89
2021/03/12 14:37:08;;;;;;;13.73;1.42;;;10.20;97.70;;;;;;4904120;29;20475;-89
2021/03/12 14:39:34;;;;;;;5.80;1.25;;;10.90;99.90;;;;;;4903882;29;20536;-89
2021/03/12 14:42:01;;;;;;;4.65;1.27;;;11.80;99.20;;;;;;4904122;29;20063;-88
2021/03/12 14:44:28;;;;;;;5.38;1.13;;;12.40;97.70;;;;;;4903949;29;20397;-88
2021/03/12 14:46:55;;;;;;;5.32;1.50;;;13.00;95.70;;;;;;4904059;29;20469;-90
2021/03/12 14:49:21;;;;;;;5.05;1.38;;;13.40;94.60;;;;;;4904437;29;20039;-90
2021/03/12 14:51:47;;;;;;;6.55;2.00;;;13.70;94.70;;;;;;4903677;29;20052;-88
2021/03/12 14:54:13;;;;;;;5.03;1.27;;;14.50;92.70;;;;;;4904078;29;20499;-90
2021/03/12 14:56:39;;;;;;;4.78;1.17;;;13.70;92.90;;;;;;4903882;29;20025;-89
2021/03/12 14:59:05;;;;;;;2.45;1.20;;;13.30;93.50;;;;;;4903949;29;20024;-90
2021/03/12 15:01:31;;;;;;;5.38;1.10;;;14.10;92.50;;;;;;4904005;29;20527;-90
2021/03/12 15:03:57;;;;;;;3.95;1.10;;;14.20;91.50;;;;;;4903538;29;20051;-90
2021/03/12 15:06:29;;;;;;;3.60;1.10;;;14.00;91.00;;;;;;4903906;29;20496;-90
2021/03/12 15:08:55;;;;;;;2.78;1.00;;;14.40;91.10;;;;;;4903839;29;20119;-89
2021/03/12 15:11:21;;;;;;;6.18;0.90;;;14.30;89.00;;;;;;4903435;29;20088;-90
2021/03/12 15:13:46;;;;;;;4.05;0.95;;;14.60;91.00;;;;;;4903448;29;20397;-89
2021/03/12 15:16:12;;;;;;;7.60;1.17;;;13.30;89.30;;;;;;4903728;29;20024;-89
2021/03/12 15:18:38;;;;;;;6.50;1.08;;;12.60;91.40;;;;;;4903639;29;20033;-88
2021/03/12 15:21:04;;;;;;;6.20;1.13;;;11.50;92.40;;;;;;4903501;29;20484;-89
2021/03/12 15:23:31;;;;;;;3.63;1.00;;;11.50;94.70;;;;;;4903515;29;20437;-87
2021/03/12 15:25:56;;;;;;;5.70;1.02;;;11.20;92.70;;;;;;4903725;29;20031;-89
2021/03/12 15:28:22;;;;;;;6.57;1.13;;;10.80;95.00;;;;;;4904231;29;20361;-89
2021/03/12 15:30:48;;;;;;;5.50;1.20;;;;;;;;;;4903494;29;20032;-88
2021/03/12 15:33:16;;;;;;;2.83;1.00;;;;;;;;;;4903049;29;20602;-90
2021/03/12 15:35:42;;;;;;;3.47;1.08;;;10.90;99.90;;;;;;4904028;29;20083;-89
2021/03/12 15:38:07;;;;;;;7.00;1.35;;;10.60;99.90;;;;;;4903081;29;20028;-90
2021/03/12 15:40:33;;;;;;;5.88;1.02;;;10.10;96.40;;;;;;4903150;29;20461;-89
2021/03/12 15:43:01;;;;;;;4.80;1.00;;;;;;;;;;4902684;29;20028;-88
2021/03/12 15:45:27;;;;;;;5.68;1.20;;;9.90;99.90;;;;;;4902772;29;20035;-89
2021/03/12 15:47:53;;;;;;;4.97;1.15;;;10.20;99.90;;;;;;4902772;29;20493;-89
2021/03/12 15:50:19;;;;;;;9.05;1.60;;;10.10;99.90;;;;;;4887033;29;20036;-89
2021/03/12 15:52:45;;;;;;;9.68;1.55;;;10.30;99.90;;;;;;4902563;29;20071;-88
2021/03/12 15:55:12;;;;;;;4.90;1.25;;;10.30;99.90;;;;;;4902518;29;20056;-87
2021/03/12 15:57:38;;;;;;;6.07;0.98;;;10.10;99.90;;;;;;4902676;29;20124;-90
2021/03/12 16:00:10;;;;;;;4.05;1.10;;;9.90;99.90;;;;;;4902594;29;20024;-88
2021/03/12 16:02:40;;;;;;;6.25;1.35;;;9.40;99.90;;;;;;4902702;29;20024;-89
2021/03/12 16:05:07;;;;;;;5.90;1.40;;;9.50;99.90;;;;;;4902823;29;20024;-89
2021/03/12 16:07:33;;;;;;;8.95;1.75;;;9.20;99.90;;;;;;4902948;29;20074;-90
2021/03/12 16:09:59;;;;;;;8.40;1.33;;;9.20;99.90;;;;;;4888173;29;20029;-88
2021/03/12 16:12:25;;;;;;;8.13;1.15;;;9.10;99.90;;;;;;4903454;29;20070;-88
2021/03/12 16:14:51;;;;;;;9.88;1.80;;;9.10;99.90;;;;;;4903525;29;20734;-88
2021/03/12 16:17:16;;;;;;;6.85;1.33;;;9.00;99.90;;;;;;4903333;29;20028;-90
2021/03/12 16:19:42;;;;;;;6.40;1.25;;;9.10;99.90;;;;;;4903477;29;20384;-87
2021/03/12 16:22:08;;;;;;;3.80;1.50;;;9.10;99.90;;;;;;4903014;29;20020;-86
2021/03/12 16:24:33;;;;;;;10.73;1.75;;;9.00;99.90;;;;;;4903063;29;20036;-86
2021/03/12 16:27:01;;;;;;;6.00;1.38;;;9.00;99.90;;;;;;4919899;29;20055;-88
2021/03/12 16:29:29;;;;;;;7.68;1.60;;;9.00;99.90;;;;;;4903516;29;20123;-89
2021/03/12 16:31:55;;;;;;;8.10;1.70;;;9.10;99.90;;;;;;4903079;29;20032;-88
2021/03/12 16:34:21;;;;;;;5.45;1.48;;;9.00;99.90;;;;;;4903039;29;20520;-89
2021/03/12 16:36:47;;;;;;;5.35;1.25;;;8.90;99.90;;;;;;4903299;29;20029;-89
2021/03/12 16:39:12;;;;;;;7.32;1.60;;;8.90;99.90;;;;;;4918822;29;20036;-88
2021/03/12 16:41:40;;;;;;;5.03;1.10;;;8.80;99.90;;;;;;4902982;29;20484;-89
2021/03/12 16:44:06;;;;;;;7.65;1.63;;;8.70;99.90;;;;;;4903303;29;20032;-89
2021/03/12 16:46:33;;;;;;;8.65;1.60;;;8.60;99.90;;;;;;4903145;29;20396;-89
2021/03/12 16:48:59;;;;;;;10.73;1.40;;;8.60;99.90;;;;;;4903047;29;20032;-88
2021/03/12 16:51:25;;;;;;;5.95;1.52;;;8.60;99.90;;;;;;4903534;29;20052;-90
2021/03/12 16:53:50;;;;;;;8.18;1.65;;;8.50;99.90;;;;;;4902116;29;20396;-89
2021/03/12 16:56:22;;;;;;;6.95;1.33;;;8.30;99.90;;;;;;4919474;29;20495;-89
2021/03/12 16:58:47;;;;;;;5.30;1.30;;;8.30;99.90;;;;;;4902532;29;20024;-89
2021/03/12 17:01:13;;;;;;;11.93;2.13;;;8.20;99.90;;;;;;4902512;29;20369;-90
2021/03/12 17:03:40;;;;;;;10.70;2.85;;;8.30;99.90;;;;;;4902668;29;20496;-89
2021/03/12 17:06:06;;;;;;;9.30;1.98;;;8.30;99.90;;;;;;4902462;29;20024;-90